Time;durP1;ratioP1;P1;durP2;ratioP2;P2;SDS_P1;SDS_P2;PMS_P1;PMS_P2;Temp;Humidity;BMP_temperature;BMP_pressure;BME280_temperature;BME280_humidity;BME280_pressure;Samples;Min_cycle;Max_cycle;Signal;HPM_P1;HPM_P2
2021/09/01 00:00:57;;;;;;;;;;;;;;;-144.99;98.58;52280.97;5069685;28;20010;-59
2021/09/01 00:03:24;;;;;;;;;;;;;;;-144.99;98.53;52317.66;5073641;28;19995;-62
2021/09/01 00:05:50;;;;;;;;;;;;;;;-144.99;98.37;52297.25;5062456;28;19999;-62
2021/09/01 00:08:17;;;;;;;;;;;;;;;-144.99;98.25;52289.13;5068668;28;19999;-62
2021/09/01 00:10:45;;;;;;;;;;;;;;;-144.99;98.22;52333.94;5069262;28;20030;-60
2021/09/01 00:13:11;;;;;;;;;;;;;;;-144.99;97.89;52285.03;5069603;28;20070;-61
2021/09/01 00:15:38;;;;;;;;;;;;;;;-144.99;98.14;52272.81;5069633;28;19989;-61
2021/09/01 00:18:04;;;;;;;;;;;;;;;-144.99;97.65;52305.41;5068655;28;19993;-61
2021/09/01 00:20:30;;;;;;;;;;;;;;;-144.99;97.65;52276.88;5068520;28;20332;-61
2021/09/01 00:22:57;;;;;;;;;;;;;;;-144.99;97.93;52291.16;5069123;28;20331;-62
2021/09/01 00:25:23;;;;;;;;;;;;;;;-144.99;97.79;52309.50;5069410;28;19969;-61
2021/09/01 00:27:51;;;;;;;;;;;;;;;-144.99;97.88;52297.25;5069126;28;19996;-61
2021/09/01 00:30:17;;;;;;;;;;;;;;;-144.99;98.04;52266.69;5064051;28;19962;-61
2021/09/01 00:32:43;;;;;;;;;;;;;;;-144.99;98.18;52293.19;5056584;28;20487;-57
2021/09/01 00:35:10;;;;;;;;;;;;;;;-144.99;98.26;52301.34;5066407;28;19931;-57
2021/09/01 00:37:37;;;;;;;;;;;;;;;-144.99;98.26;52342.09;5068300;28;19980;-58
2021/09/01 00:40:03;;;;;;;;;;;;;;;-144.99;98.23;52325.81;5068985;28;19998;-57
2021/09/01 00:42:30;;;;;;;;;;;;;;;-144.99;98.30;52321.72;5069487;28;19967;-57
2021/09/01 00:44:57;;;;;;;;;;;;;;;-144.99;98.49;52333.94;5073410;28;19970;-57
2021/09/01 00:47:24;;;;;;;;;;;;;;;-144.99;99.11;52319.69;5072321;28;20030;-58
2021/09/01 00:49:50;;;;;;;;;;;;;;;-144.99;99.44;52313.56;5072993;28;20336;-57
2021/09/01 00:52:17;;;;;;;;;;;;;;;-144.99;99.69;52309.50;5072462;28;19977;-57
2021/09/01 00:54:43;;;;;;;;;;;;;;;-144.99;99.55;52285.03;5072656;28;19982;-57
2021/09/01 00:57:11;;;;;;;;;;;;;;;-144.99;99.43;52313.56;5064971;28;19990;-58
2021/09/01 00:59:39;;;;;;;;;;;;;;;-144.99;99.41;52317.66;5072270;28;19974;-57
2021/09/01 01:02:06;;;;;;;;;;;;;;;-144.99;99.43;52307.47;5072802;28;19979;-57
2021/09/01 01:04:33;;;;;;;;;;;;;;;-144.99;99.62;52329.88;5075065;28;19973;-58
2021/09/01 01:07:01;;;;;;;;;;;;;;;-144.99;99.54;52333.94;5067211;28;19999;-58
2021/09/01 01:09:28;;;;;;;;;;;;;;;-144.99;100.00;52297.25;5079226;28;19962;-58
2021/09/01 01:12:06;;;;;;;;;;;;;;;-144.99;99.98;52264.66;5072651;28;19978;-58
2021/09/01 01:14:33;;;;;;;;;;;;;;;-144.99;99.95;52301.34;5072928;28;19987;-57
2021/09/01 01:17:00;;;;;;;;;;;;;;;-144.99;100.00;52323.75;5072037;28;19991;-57
2021/09/01 01:19:27;;;;;;;;;;;;;;;-144.99;100.00;52338.03;5072154;28;19960;-58
2021/09/01 01:21:54;;;;;;;;;;;;;;;-144.99;100.00;52313.56;5071869;28;19978;-58
2021/09/01 01:24:20;;;;;;;;;;;;;;;-144.99;100.00;52285.03;5072298;28;19987;-57
2021/09/01 01:26:48;;;;;;;;;;;;;;;-144.99;100.00;52301.34;5072333;28;19988;-57
2021/09/01 01:29:14;;;;;;;;;;;;;;;-144.99;100.00;52329.88;5070447;28;19991;-58
2021/09/01 01:31:41;;;;;;;;;;;;;;;-144.99;99.97;52327.84;5063564;28;19972;-58
2021/09/01 01:34:12;;;;;;;;;;;;;;;-144.99;100.00;52325.81;5072400;28;20359;-58
2021/09/01 01:36:38;;;;;;;;;;;;;;;-144.99;100.00;52307.47;5072068;28;20021;-58
2021/09/01 01:39:05;;;;;;;;;;;;;;;-144.99;100.00;52309.50;5071873;28;19976;-59
2021/09/01 01:41:31;;;;;;;;;;;;;;;-144.99;100.00;52309.50;5071946;28;19972;-60
2021/09/01 01:43:59;;;;;;;;;;;;;;;-144.99;100.00;52331.91;5071873;28;19979;-60
2021/09/01 01:46:25;;;;;;;;;;;;;;;-144.99;100.00;52327.84;5071306;28;19995;-60
2021/09/01 01:48:51;;;;;;;;;;;;;;;-144.99;100.00;52340.06;5071671;28;19976;-60
2021/09/01 01:51:18;;;;;;;;;;;;;;;-144.99;100.00;52280.97;5071489;28;19972;-61
2021/09/01 01:53:44;;;;;;;;;;;;;;;-144.99;100.00;52307.47;5071225;28;20348;-61
2021/09/01 01:56:10;;;;;;;;;;;;;;;-144.99;100.00;52317.66;5071655;28;19981;-60
2021/09/01 01:58:37;;;;;;;;;;;;;;;-144.99;100.00;52342.09;5071847;28;20033;-57
2021/09/01 02:01:04;;;;;;;;;;;;;;;-144.99;100.00;52321.72;5071454;28;19978;-57
2021/09/01 02:03:31;;;;;;;;;;;;;;;-144.99;100.00;52307.47;5074949;28;19978;-57
2021/09/01 02:05:57;;;;;;;;;;;;;;;-144.99;100.00;52346.19;5071916;28;20435;-57
2021/09/01 02:08:23;;;;;;;;;;;;;;;-144.99;100.00;52317.66;5068673;28;20010;-57
2021/09/01 02:10:50;;;;;;;;;;;;;;;-144.99;100.00;52358.41;5071858;28;19974;-58
2021/09/01 02:13:16;;;;;;;;;;;;;;;-144.99;100.00;52313.56;5072125;28;19988;-58
2021/09/01 02:15:42;;;;;;;;;;;;;;;-144.99;100.00;52323.75;5071859;28;19966;-58
2021/09/01 02:18:10;;;;;;;;;;;;;;;-144.99;100.00;52338.03;5071179;28;19998;-58
2021/09/01 02:20:36;;;;;;;;;;;;;;;-144.99;100.00;52323.75;5070483;28;19971;-58
2021/09/01 02:23:03;;;;;;;;;;;;;;;-144.99;100.00;52346.19;5070773;28;19993;-58
2021/09/01 02:25:29;;;;;;;;;;;;;;;-144.99;100.00;52319.69;5070938;28;20394;-61
2021/09/01 02:27:56;;;;;;;;;;;;;;;-144.99;100.00;52317.66;5071190;28;19993;-62
2021/09/01 02:30:23;;;;;;;;;;;;;;;-144.99;100.00;52289.13;5069996;28;19983;-62
2021/09/01 02:32:49;;;;;;;;;;;;;;;-144.99;100.00;52293.19;5070886;28;19965;-62
2021/09/01 02:35:17;;;;;;;;;;;;;;;-144.99;100.00;52350.25;5071485;28;19983;-62
2021/09/01 02:37:43;;;;;;;;;;;;;;;-144.99;100.00;52338.03;5071251;28;20008;-62
2021/09/01 02:40:10;;;;;;;;;;;;;;;-144.99;100.00;52342.09;5071258;28;19980;-62
2021/09/01 02:42:36;;;;;;;;;;;;;;;-144.99;100.00;52338.03;5071421;28;20415;-62
2021/09/01 02:45:03;;;;;;;;;;;;;;;-144.99;100.00;52336.00;5070424;28;20001;-61
2021/09/01 02:47:29;;;;;;;;;;;;;;;-144.99;100.00;52338.03;5070908;28;19997;-61
2021/09/01 02:49:55;;;;;;;;;;;;;;;-144.99;100.00;52315.59;5070908;28;20061;-61
2021/09/01 02:52:23;;;;;;;;;;;;;;;-144.99;100.00;52352.28;5071065;28;19994;-59
2021/09/01 02:54:49;;;;;;;;;;;;;;;-144.99;100.00;52350.25;5071011;28;19977;-60
2021/09/01 02:57:16;;;;;;;;;;;;;;;-144.99;100.00;52325.81;5070882;28;20001;-59
2021/09/01 02:59:42;;;;;;;;;;;;;;;-144.99;100.00;52313.56;5070330;28;19980;-60
2021/09/01 03:02:08;;;;;;;;;;;;;;;-144.99;100.00;52293.19;5070299;28;19982;-60
2021/09/01 03:04:35;;;;;;;;;;;;;;;-144.99;100.00;52329.88;5075700;28;19976;-61
2021/09/01 03:07:01;;;;;;;;;;;;;;;-144.99;100.00;52325.81;5062725;28;19994;-61
2021/09/01 03:09:29;;;;;;;;;;;;;;;-144.99;100.00;52362.50;5076369;28;19972;-63
2021/09/01 03:11:55;;;;;;;;;;;;;;;-144.99;100.00;52374.72;5070933;28;20263;-62
2021/09/01 03:14:21;;;;;;;;;;;;;;;-144.99;100.00;52354.34;5071135;28;19980;-59
2021/09/01 03:16:48;;;;;;;;;;;;;;;-144.99;100.00;52317.66;5069912;28;19996;-60
2021/09/01 03:19:14;;;;;;;;;;;;;;;-144.99;100.00;52358.41;5070279;28;20225;-61
2021/09/01 03:21:41;;;;;;;;;;;;;;;-144.99;100.00;52358.41;5069335;28;20032;-62
2021/09/01 03:24:07;;;;;;;;;;;;;;;-144.99;100.00;52338.03;5070647;28;20310;-62
2021/09/01 03:26:35;;;;;;;;;;;;;;;-144.99;100.00;52358.41;5069829;28;20007;-61
2021/09/01 03:29:01;;;;;;;;;;;;;;;-144.99;100.00;52354.34;5069988;28;20028;-63
2021/09/01 03:31:27;;;;;;;;;;;;;;;-144.99;100.00;52313.56;5061365;28;19977;-63
2021/09/01 03:33:54;;;;;;;;;;;;;;;-144.99;100.00;52344.16;5064657;28;19982;-64
2021/09/01 03:36:20;;;;;;;;;;;;;;;-144.99;100.00;52354.34;5069614;28;20443;-64
2021/09/01 03:38:46;;;;;;;;;;;;;;;-144.99;100.00;52338.03;5070015;28;20000;-64
2021/09/01 03:41:13;;;;;;;;;;;;;;;-144.99;100.00;52342.09;5083771;28;19980;-64
2021/09/01 03:43:40;;;;;;;;;;;;;;;-144.99;100.00;52336.00;5090899;28;20352;-63
2021/09/01 03:46:07;;;;;;;;;;;;;;;-144.99;100.00;52338.03;5089830;28;19982;-60
2021/09/01 03:48:33;;;;;;;;;;;;;;;-144.99;100.00;52333.94;5090143;28;20011;-60
2021/09/01 03:51:00;;;;;;;;;;;;;;;-144.99;100.00;52391.03;5090601;28;19970;-60
2021/09/01 03:53:26;;;;;;;;;;;;;;;-144.99;100.00;52354.34;5090233;28;19990;-60
2021/09/01 03:55:52;;;;;;;;;;;;;;;-144.99;100.00;52323.75;5082398;28;20060;-60
2021/09/01 03:58:19;;;;;;;;;;;;;;;-144.99;100.00;52370.63;5090379;28;20512;-59
2021/09/01 04:00:46;;;;;;;;;;;;;;;-144.99;100.00;52362.50;5089856;28;20007;-59
2021/09/01 04:03:13;;;;;;;;;;;;;;;-144.99;100.00;52374.72;5073245;28;19971;-59
2021/09/01 04:05:39;;;;;;;;;;;;;;;-144.99;100.00;52317.66;5070756;28;19994;-59
2021/09/01 04:08:06;;;;;;;;;;;;;;;-144.99;100.00;52325.81;5060114;28;20382;-60
2021/09/01 04:10:32;;;;;;;;;;;;;;;-144.99;100.00;52346.19;5069122;28;19974;-60
2021/09/01 04:12:58;;;;;;;;;;;;;;;-144.99;100.00;52350.25;5069771;28;19984;-60
2021/09/01 04:15:25;;;;;;;;;;;;;;;-144.99;100.00;52346.19;5069832;28;19982;-60
2021/09/01 04:17:52;;;;;;;;;;;;;;;-144.99;100.00;52325.81;5069403;28;20025;-62
2021/09/01 04:20:19;;;;;;;;;;;;;;;-144.99;100.00;52362.50;5068841;28;20029;-60
2021/09/01 04:22:45;;;;;;;;;;;;;;;-144.99;100.00;52374.72;5069160;28;20012;-61
2021/09/01 04:25:12;;;;;;;;;;;;;;;-144.99;100.00;52325.81;5069662;28;19986;-61
2021/09/01 04:27:38;;;;;;;;;;;;;;;-144.99;100.00;52366.56;5069276;28;19999;-61
2021/09/01 04:30:05;;;;;;;;;;;;;;;-144.99;100.00;52344.16;5064123;28;19983;-61
2021/09/01 04:32:31;;;;;;;;;;;;;;;-144.99;100.00;52342.09;5067397;28;19995;-62
2021/09/01 04:34:59;;;;;;;;;;;;;;;-144.99;100.00;52350.25;5084432;28;20444;-62
2021/09/01 04:37:25;;;;;;;;;;;;;;;-144.99;100.00;52362.50;5088142;28;20020;-62
2021/09/01 04:39:52;;;;;;;;;;;;;;;-144.99;100.00;52344.16;5068938;28;20336;-62
2021/09/01 04:42:18;;;;;;;;;;;;;;;-144.99;100.00;52342.09;5069810;28;19984;-62
2021/09/01 04:44:44;;;;;;;;;;;;;;;-144.99;100.00;52354.34;5069423;28;19985;-61
2021/09/01 04:47:11;;;;;;;;;;;;;;;-144.99;100.00;52358.41;5068803;28;19935;-61
2021/09/01 04:49:37;;;;;;;;;;;;;;;-144.99;100.00;52370.63;5069296;28;19983;-61
2021/09/01 04:52:05;;;;;;;;;;;;;;;-144.99;100.00;52342.09;5069086;28;19966;-62
2021/09/01 04:54:32;;;;;;;;;;;;;;;-144.99;100.00;52333.94;5084070;22;20001;-72
2021/09/01 04:56:58;;;;;;;;;;;;;;;-144.99;100.00;52360.44;5082222;28;20382;-72
2021/09/01 04:59:25;;;;;;;;;;;;;;;-144.99;100.00;52325.81;5071773;28;19982;-72
2021/09/01 05:01:51;;;;;;;;;;;;;;;-144.99;100.00;52346.19;5069537;28;19976;-72
2021/09/01 05:04:17;;;;;;;;;;;;;;;-144.99;100.00;52325.81;5069242;28;19993;-72
2021/09/01 05:06:44;;;;;;;;;;;;;;;-144.99;100.00;52386.94;5069642;28;19991;-72
2021/09/01 05:09:14;;;;;;;;;;;;;;;-144.99;100.00;52313.56;4443874;28;10000396;-73
2021/09/01 05:11:40;;;;;;;;;;;;;;;-144.99;100.00;52317.66;5067069;28;19990;-70
2021/09/01 05:14:06;;;;;;;;;;;;;;;-144.99;100.00;52303.38;5068102;28;19956;-71
2021/09/01 05:16:33;;;;;;;;;;;;;;;-144.99;100.00;52321.72;5067999;28;19999;-72
2021/09/01 05:18:59;;;;;;;;;;;;;;;-144.99;100.00;52305.41;5067308;28;19984;-71
2021/09/01 05:21:26;;;;;;;;;;;;;;;-144.99;100.00;52317.66;5067097;28;20072;-71
2021/09/01 05:23:55;;;;;;;;;;;;;;;-144.99;100.00;52321.72;5067124;28;20476;-71
2021/09/01 05:26:24;;;;;;;;;;;;;;;-144.99;100.00;52362.50;5067567;28;20008;-71
2021/09/01 05:28:50;;;;;;;;;;;;;;;-144.99;100.00;52336.00;5067858;28;19999;-71
2021/09/01 05:31:18;;;;;;;;;;;;;;;-144.99;100.00;52333.94;5069790;28;19976;-71
2021/09/01 05:33:49;;;;;;;;;;;;;;;-144.99;100.00;52305.41;5070274;28;19976;-71
2021/09/01 05:36:16;;;;;;;;;;;;;;;-144.99;100.00;52350.25;5069748;28;19989;-71
2021/09/01 05:38:45;;;;;;;;;;;;;;;-144.99;100.00;52321.72;5065241;28;19994;-71
2021/09/01 05:41:12;;;;;;;;;;;;;;;-144.99;100.00;52325.81;5070282;28;20339;-71
2021/09/01 05:43:40;;;;;;;;;;;;;;;-144.99;100.00;52301.34;5070074;28;19972;-72
2021/09/01 05:46:07;;;;;;;;;;;;;;;-144.99;100.00;52329.88;5070516;28;19982;-71
2021/09/01 05:48:33;;;;;;;;;;;;;;;-144.99;100.00;52329.88;5070422;28;20005;-71
2021/09/01 05:51:01;;;;;;;;;;;;;;;-144.99;100.00;52325.81;5071205;28;19991;-71
2021/09/01 05:53:27;;;;;;;;;;;;;;;-144.99;100.00;52346.19;5071492;28;19983;-71
2021/09/01 05:55:54;;;;;;;;;;;;;;;-144.99;100.00;52313.56;5070831;28;20477;-72
2021/09/01 05:58:20;;;;;;;;;;;;;;;-144.99;100.00;52342.09;5070187;28;20103;-72
2021/09/01 06:00:52;;;;;;;;;;;;;;;-144.99;100.00;52301.34;5070730;28;19981;-72
2021/09/01 06:03:19;;;;;;;;;;;;;;;-144.99;100.00;52309.50;5068588;28;19978;-71
2021/09/01 06:05:47;;;;;;;;;;;;;;;-144.99;100.00;52313.56;5063254;28;19979;-73
2021/09/01 06:08:14;;;;;;;;;;;;;;;-144.99;100.00;52331.91;5071026;28;20037;-72
2021/09/01 06:10:40;;;;;;;;;;;;;;;-144.99;100.00;52285.03;5059009;28;19992;-72
2021/09/01 06:13:07;;;;;;;;;;;;;;;-144.99;100.00;52280.97;5071107;28;20362;-72
2021/09/01 06:15:34;;;;;;;;;;;;;;;-144.99;100.00;52352.28;5069436;28;20155;-72
2021/09/01 06:18:02;;;;;;;;;;;;;;;-144.99;100.00;52303.38;5068720;28;19993;-72
2021/09/01 06:20:29;;;;;;;;;;;;;;;-144.99;100.00;52305.41;5069676;28;19983;-72
2021/09/01 06:22:55;;;;;;;;;;;;;;;-144.99;99.86;52283.00;5069305;28;19992;-73
2021/09/01 06:25:22;;;;;;;;;;;;;;;-144.99;99.27;52289.13;5069774;28;20883;-73
2021/09/01 06:27:49;;;;;;;;;;;;;;;-144.99;98.89;52270.78;5069478;28;20483;-73
2021/09/01 06:30:15;;;;;;;;;;;;;;;-144.99;99.35;52293.19;5068566;28;19976;-73
2021/09/01 06:32:41;;;;;;;;;;;;;;;-144.99;99.24;52293.19;5070200;28;19976;-72
2021/09/01 06:35:11;;;;;;;;;;;;;;;-144.99;98.63;52280.97;5069647;28;19986;-73
2021/09/01 06:37:39;;;;;;;;;;;;;;;-144.99;97.92;52260.56;5069628;28;19999;-72
2021/09/01 06:40:06;;;;;;;;;;;;;;;-144.99;97.39;52297.25;5068390;28;19980;-73
2021/09/01 06:42:32;;;;;;;;;;;;;;;-144.99;96.67;52305.41;5069213;28;19984;-73
2021/09/01 06:44:59;;;;;;;;;;;;;;;-144.99;96.19;52268.72;5069093;28;19980;-73
2021/09/01 06:47:25;;;;;;;;;;;;;;;-144.99;95.47;52280.97;5068568;28;20182;-73
2021/09/01 06:49:52;;;;;;;;;;;;;;;-144.99;94.67;52268.72;5068572;28;19984;-72
2021/09/01 06:52:19;;;;;;;;;;;;;;;-144.99;94.24;52240.19;5068793;28;19982;-73
2021/09/01 06:54:46;;;;;;;;;;;;;;;-144.99;93.43;52289.13;5068142;28;19989;-73
2021/09/01 06:57:12;;;;;;;;;;;;;;;-144.99;92.50;52264.66;5069334;28;20044;-72
2021/09/01 06:59:38;;;;;;;;;;;;;;;-144.99;91.89;52293.19;5068358;28;20066;-73
2021/09/01 07:02:05;;;;;;;;;;;;;;;-144.99;91.12;52280.97;5067709;28;20456;-73
2021/09/01 07:04:31;;;;;;;;;;;;;;;-144.99;90.20;52268.72;5068961;28;19981;-73
2021/09/01 07:06:57;;;;;;;;;;;;;;;-144.99;89.59;52252.44;5068366;28;19985;-73
2021/09/01 07:09:25;;;;;;;;;;;;;;;-144.99;89.27;52230.00;5066108;28;19999;-73
2021/09/01 07:11:51;;;;;;;;;;;;;;;-144.99;89.23;52236.13;5063247;28;20086;-73
2021/09/01 07:14:18;;;;;;;;;;;;;;;-144.99;88.97;52252.44;5068845;28;20463;-73
2021/09/01 07:16:44;;;;;;;;;;;;;;;-144.99;88.58;52240.19;5068048;28;20352;-73
2021/09/01 07:19:11;;;;;;;;;;;;;;;-144.99;87.77;52280.97;5068198;28;20010;-73
2021/09/01 07:21:37;;;;;;;;;;;;;;;-144.99;86.75;52244.28;5067725;28;20504;-74
2021/09/01 07:24:03;;;;;;;;;;;;;;;-144.99;85.86;52223.88;5068764;28;20003;-74
2021/09/01 07:26:31;;;;;;;;;;;;;;;-144.99;85.33;52219.81;5068422;28;19981;-74
2021/09/01 07:28:58;;;;;;;;;;;;;;;-144.99;84.87;52240.19;5070153;28;20059;-74
2021/09/01 07:31:24;;;;;;;;;;;;;;;-144.99;83.58;52246.31;5076802;28;20002;-74
2021/09/01 07:33:50;;;;;;;;;;;;;;;-144.99;83.31;52260.56;5069664;28;19987;-74
2021/09/01 07:36:17;;;;;;;;;;;;;;;-144.99;82.46;52244.28;5068147;28;20026;-72
2021/09/01 07:38:43;;;;;;;;;;;;;;;-144.99;82.25;52230.00;5062044;28;20015;-71
2021/09/01 07:41:09;;;;;;;;;;;;;;;-144.99;81.14;52211.66;5067871;28;20063;-72
2021/09/01 07:43:37;;;;;;;;;;;;;;;-144.99;80.68;52199.44;5067666;28;20492;-71
2021/09/01 07:46:03;;;;;;;;;;;;;;;-144.99;79.70;52199.44;5067785;28;20062;-72
2021/09/01 07:48:30;;;;;;;;;;;;;;;-144.99;78.22;52195.34;5067627;28;20480;-72
2021/09/01 07:50:56;;;;;;;;;;;;;;;-144.99;77.70;52215.75;5066767;28;19984;-72
2021/09/01 07:53:23;;;;;;;;;;;;;;;-144.99;77.60;52209.63;5067564;28;20006;-72
2021/09/01 07:55:49;;;;;;;;;;;;;;;-144.99;76.66;52211.66;5067665;28;19984;-72
2021/09/01 07:58:15;;;;;;;;;;;;;;;-144.99;76.53;52211.66;5068027;28;20086;-72
2021/09/01 08:00:43;;;;;;;;;;;;;;;-144.99;76.63;52203.50;5067471;28;20466;-72
2021/09/01 08:03:10;;;;;;;;;;;;;;;-144.99;75.74;52240.19;5066927;28;20351;-72
2021/09/01 08:05:36;;;;;;;;;;;;;;;-144.99;74.02;52205.53;5066823;28;20425;-72
2021/09/01 08:08:03;;;;;;;;;;;;;;;-144.99;73.32;52215.75;5066550;28;20000;-72
2021/09/01 08:10:29;;;;;;;;;;;;;;;-144.99;72.83;52213.69;5054628;28;19987;-72
2021/09/01 08:12:55;;;;;;;;;;;;;;;-144.99;71.41;52244.28;5067096;28;19992;-72
2021/09/01 08:15:22;;;;;;;;;;;;;;;-144.99;71.67;52258.53;5067347;28;20462;-72
2021/09/01 08:17:50;;;;;;;;;;;;;;;-144.99;72.30;52215.75;5066609;28;19994;-70
2021/09/01 08:20:16;;;;;;;;;;;;;;;-144.99;72.70;52183.13;5067313;28;20336;-70
2021/09/01 08:22:42;;;;;;;;;;;;;;;-144.99;72.35;52232.03;5067128;28;19980;-70
2021/09/01 08:25:10;;;;;;;;;;;;;;;-144.99;71.72;52199.44;5067116;28;20509;-70
2021/09/01 08:27:36;;;;;;;;;;;;;;;-144.99;70.50;52207.59;5067319;28;20333;-71
2021/09/01 08:30:04;;;;;;;;;;;;;;;-144.99;70.41;52199.44;5066947;28;19995;-70
2021/09/01 08:32:30;;;;;;;;;;;;;;;-144.99;69.37;52189.25;5067081;28;19974;-71
2021/09/01 08:34:58;;;;;;;;;;;;;;;-144.99;69.11;52179.06;5067610;28;20061;-70
2021/09/01 08:37:24;;;;;;;;;;;;;;;-144.99;68.93;52195.34;5066571;28;19967;-70
2021/09/01 08:39:50;;;;;;;;;;;;;;;-144.99;68.67;52191.28;5062491;28;19988;-70
2021/09/01 08:42:18;;;;;;;;;;;;;;;-144.99;67.16;52170.91;5067151;28;19978;-70
2021/09/01 08:44:44;;;;;;;;;;;;;;;-144.99;66.64;52225.94;5067097;28;19939;-71
2021/09/01 08:47:12;;;;;;;;;;;;;;;-144.99;66.07;52211.66;5065883;28;19982;-71
2021/09/01 08:49:38;;;;;;;;;;;;;;;-144.99;65.66;52221.84;5066656;28;20070;-71
2021/09/01 08:52:06;;;;;;;;;;;;;;;-144.99;64.69;52209.63;5066969;28;19958;-72
2021/09/01 08:54:33;;;;;;;;;;;;;;;-144.99;64.80;52174.97;5067214;28;19981;-71
2021/09/01 08:56:59;;;;;;;;;;;;;;;-144.99;63.12;52177.00;5066931;28;20011;-71
2021/09/01 08:59:26;;;;;;;;;;;;;;;-144.99;64.09;52170.91;5066955;28;19947;-72
2021/09/01 09:01:54;;;;;;;;;;;;;;;-144.99;64.62;52215.75;5065933;28;19972;-71
2021/09/01 09:04:21;;;;;;;;;;;;;;;-144.99;64.51;52203.50;5067339;28;19953;-71
2021/09/01 09:06:49;;;;;;;;;;;;;;;-144.99;64.44;52199.44;5063943;28;19997;-72
2021/09/01 09:09:18;;;;;;;;;;;;;;;-144.99;62.87;52195.34;5067750;28;19925;-71
2021/09/01 09:11:44;;;;;;;;;;;;;;;-144.99;61.15;52170.91;5060854;28;20096;-71
2021/09/01 09:14:24;;;;;;;;;;;;;;;-144.99;60.86;52146.44;5069953;28;20394;-71
2021/09/01 09:17:01;;;;;;;;;;;;;;;-144.99;60.33;52154.59;5070734;28;19982;-71
2021/09/01 09:19:41;;;;;;;;;;;;;;;-144.99;59.10;52179.06;5056744;28;20611;-71
2021/09/01 09:22:08;;;;;;;;;;;;;;;-144.99;59.51;52160.72;5069860;28;19970;-71
2021/09/01 09:24:36;;;;;;;;;;;;;;;-144.99;59.56;52181.09;5069632;28;19959;-71
2021/09/01 09:27:03;;;;;;;;;;;;;;;-144.99;59.76;52177.00;5070158;28;19982;-71
2021/09/01 09:29:31;;;;;;;;;;;;;;;-144.99;59.67;52158.66;5068644;28;20430;-71
2021/09/01 09:31:59;;;;;;;;;;;;;;;-144.99;59.74;52179.06;5070201;28;20409;-70
2021/09/01 09:34:33;;;;;;;;;;;;;;;-144.99;60.88;52166.81;5069908;28;19952;-70
2021/09/01 09:37:03;;;;;;;;;;;;;;;-144.99;60.35;52183.13;5069310;28;20019;-71
2021/09/01 09:39:38;;;;;;;;;;;;;;;-144.99;59.73;52146.44;5064058;28;19935;-71
2021/09/01 09:42:04;;;;;;;;;;;;;;;-144.99;59.44;52197.41;5070553;28;19953;-71
2021/09/01 09:44:31;;;;;;;;;;;;;;;-144.99;58.90;52166.81;5069490;28;19948;-71
2021/09/01 09:46:57;;;;;;;;;;;;;;;-144.99;57.48;52150.53;5068744;28;19977;-70
2021/09/01 09:49:27;;;;;;;;;;;;;;;-144.99;56.31;52124.03;5068872;28;19966;-70
2021/09/01 09:51:54;;;;;;;;;;;;;;;-144.99;55.10;52146.44;5068852;28;19936;-71
2021/09/01 09:54:21;;;;;;;;;;;;;;;-144.99;54.30;52111.78;5068870;28;19924;-70
2021/09/01 09:56:49;;;;;;;;;;;;;;;-144.99;53.61;52105.69;5069054;28;20357;-72
2021/09/01 09:59:16;;;;;;;;;;;;;;;-144.99;53.35;52124.03;5068391;28;20385;-70
2021/09/01 10:01:43;;;;;;;;;;;;;;;-144.99;52.62;52109.75;5068777;28;20283;-71
2021/09/01 10:04:10;;;;;;;;;;;;;;;-144.99;52.53;52128.09;5069266;28;19966;-70
2021/09/01 10:06:36;;;;;;;;;;;;;;;-144.99;52.07;52109.75;5061260;28;19959;-72
2021/09/01 10:09:04;;;;;;;;;;;;;;;-144.99;50.67;52105.69;5068614;28;19940;-71
2021/09/01 10:11:32;;;;;;;;;;;;;;;-144.99;50.62;52089.38;5068700;28;19935;-70
2021/09/01 10:14:00;;;;;;;;;;;;;;;-144.99;49.93;52103.66;5069181;28;20327;-71
2021/09/01 10:16:30;;;;;;;;;;;;;;;-144.99;49.33;52069.00;5068853;28;19928;-70
2021/09/01 10:18:59;;;;;;;;;;;;;;;-144.99;49.45;52052.69;5068436;28;20263;-71
2021/09/01 10:21:26;;;;;;;;;;;;;;;-144.99;49.18;52089.38;5068553;28;19932;-70
2021/09/01 10:23:54;;;;;;;;;;;;;;;-144.99;48.40;52042.50;5068540;28;19935;-71
2021/09/01 10:26:26;;;;;;;;;;;;;;;-144.99;47.95;52060.84;5068622;28;19924;-71
2021/09/01 10:28:53;;;;;;;;;;;;;;;-144.99;47.18;52044.53;5068229;28;20454;-71
2021/09/01 10:31:32;;;;;;;;;;;;;;;-144.99;46.85;52048.63;5066802;28;19932;-71
2021/09/01 10:34:02;;;;;;;;;;;;;;;-144.99;47.62;52020.09;5064092;28;19931;-71
2021/09/01 10:36:48;;;;;;;;;;;;;;;-144.99;46.95;52009.91;5068844;28;19928;-71
2021/09/01 10:39:16;;;;;;;;;;;;;;;-144.99;46.10;52024.16;5068729;28;19964;-71
2021/09/01 10:41:42;;;;;;;;;;;;;;;-144.99;46.46;52089.38;5068873;28;20134;-71
2021/09/01 10:44:09;;;;;;;;;;;;;;;-144.99;45.78;52007.84;5068599;28;20393;-71
2021/09/01 10:46:51;;;;;;;;;;;;;;;-144.99;45.98;51946.72;5068438;28;19929;-71
2021/09/01 10:49:18;;;;;;;;;;;;;;;-144.99;45.36;51952.81;5067631;28;19925;-72
2021/09/01 10:51:48;;;;;;;;;;;;;;;-144.99;45.46;51946.72;5073766;28;20384;-72
2021/09/01 10:54:28;;;;;;;;;;;;;;;-144.99;45.80;51969.13;5081487;28;19925;-72
2021/09/01 10:56:54;;;;;;;;;;;;;;;-144.99;45.90;51963.03;5103531;22;19927;-62
2021/09/01 10:59:23;;;;;;;;;;;;;;;-144.99;46.01;52016.00;5096435;28;19935;-62
2021/09/01 11:02:05;;;;;;;;;;;;;;;-144.99;45.31;51938.56;5087172;28;19970;-62
2021/09/01 11:04:33;;;;;;;;;;;;;;;-144.99;45.35;51967.09;5087464;28;19938;-62
2021/09/01 11:07:02;;;;;;;;;;;;;;;-144.99;45.92;52040.47;5086960;28;20455;-62
2021/09/01 11:09:28;;;;;;;;;;;;;;;-144.99;46.10;52126.06;5085221;28;19939;-62
2021/09/01 11:11:55;;;;;;;;;;;;;;;-144.99;46.18;51958.94;5088191;28;19924;-61
2021/09/01 11:14:30;;;;;;;;;;;;;;;-144.99;45.84;51946.72;5087512;28;19946;-63
2021/09/01 11:16:57;;;;;;;;;;;;;;;-144.99;45.14;51914.09;5086586;28;20412;-61
2021/09/01 11:19:23;;;;;;;;;;;;;;;-144.99;44.20;51928.38;5080628;28;20270;-62
2021/09/01 11:21:51;;;;;;;;;;;;;;;-144.99;44.06;51889.66;5086677;28;19946;-62
2021/09/01 11:24:18;;;;;;;;;;;;;;;-144.99;43.71;52046.56;5087418;28;19931;-62
2021/09/01 11:26:45;;;;;;;;;;;;;;;-144.99;43.81;51914.09;5086915;28;19932;-62
2021/09/01 11:29:12;;;;;;;;;;;;;;;-144.99;44.35;51963.03;5085419;28;20030;-62
2021/09/01 11:31:44;;;;;;;;;;;;;;;-144.99;43.16;51865.19;5081335;28;19932;-62
2021/09/01 11:34:11;;;;;;;;;;;;;;;-144.99;42.58;51873.34;5087158;28;19932;-62
2021/09/01 11:36:38;;;;;;;;;;;;;;;-144.99;41.80;51844.81;5086713;28;20371;-62
2021/09/01 11:39:06;;;;;;;;;;;;;;;-144.99;41.38;51934.50;5082098;28;19928;-61
2021/09/01 11:41:32;;;;;;;;;;;;;;;-144.99;41.82;51857.03;5086701;28;19924;-61
2021/09/01 11:43:59;;;;;;;;;;;;;;;-144.99;41.37;51865.19;5086688;28;19935;-61
2021/09/01 11:46:27;;;;;;;;;;;;;;;-144.99;41.11;51865.19;5086903;28;20133;-62
2021/09/01 11:48:56;;;;;;;;;;;;;;;-144.99;41.18;51967.09;5086376;28;19935;-62
2021/09/01 11:51:22;;;;;;;;;;;;;;;-144.99;40.89;52040.47;5086442;28;19928;-62
2021/09/01 11:53:49;;;;;;;;;;;;;;;-144.99;41.04;51879.47;5086612;28;19933;-62
2021/09/01 11:56:17;;;;;;;;;;;;;;;-144.99;40.69;51844.81;5086078;28;19924;-61
2021/09/01 11:58:55;;;;;;;;;;;;;;;-144.99;41.45;51897.81;5085992;28;19927;-62
2021/09/01 12:01:21;;;;;;;;;;;;;;;-144.99;40.92;51877.44;5085806;28;19924;-61
2021/09/01 12:03:48;;;;;;;;;;;;;;;-144.99;41.80;52032.31;5086994;28;19928;-61
2021/09/01 12:06:14;;;;;;;;;;;;;;;-144.99;42.52;52060.84;5078348;28;20444;-61
2021/09/01 12:08:41;;;;;;;;;;;;;;;-144.99;42.65;51934.50;5086740;28;19928;-60
2021/09/01 12:11:08;;;;;;;;;;;;;;;-144.99;43.04;51905.97;5073060;28;19975;-60
2021/09/01 12:13:43;;;;;;;;;;;;;;;-144.99;42.71;51926.34;5086262;28;19928;-61
2021/09/01 12:16:10;;;;;;;;;;;;;;;-144.99;42.71;51885.56;5085890;28;19932;-60
2021/09/01 12:18:50;;;;;;;;;;;;;;;-144.99;42.18;51897.81;5085946;28;19947;-61
2021/09/01 12:21:16;;;;;;;;;;;;;;;-144.99;42.33;51918.19;5085900;28;19976;-60
2021/09/01 12:23:43;;;;;;;;;;;;;;;-144.99;41.84;51916.16;5086300;28;20521;-60